Terminal Aerodrome Forecast
Issued by NWS Jackson, MS

Home | Current Version | Previous Version | Text Only | Print | Product List | Glossary On
Versions: 1 2 3 4 5 6 7 8 9 10 11 12 13 14 15
000
FTUS44 KJAN 222327
TAFJAN
TAF
KJAN 222327Z 2300/2324 26010G20KT 5SM -SHRA BKN050
     FM230300 28013G25KT 6SM -SHRA BKN015 BKN025
     FM230500 31017G28KT 6SM BR VCSH BKN008 OVC025
     FM231000 31015G27KT P6SM BKN015 OVC025
     FM231700 32010G20KT P6SM FEW015 SCT025 BKN250=

USA.gov is the U.S. government's official web portal to all federal, state and local government web resources and services.